Huvudsida
METAR-TAF:

METAR-TAF

Flygplatser :

Rijekas flygplats

Rijeka, Kroatien

latitud: 45-13N, longitud: 014-35E, höjd: 85 m

Aktuellt väderrapport

Denna rapport gjordes för 5 minuter sedan, klockan 14:00 UTC
Vind 6 kt från ost, varierande mellan nordost och sydost
Temperatur 31°C
Fuktighet 43%
Tryck 1018 hPa
Sikt 10 km eller mer
Få moln på en höjd av 6000 ft

METAR: LDRI 241400Z 10006KT 040V130 9999 FEW060 31/17 Q1018

Tid: 16:05 (14:05 UTC)

Väderprognos

Denna rapport gjordes för 2 timmar och 40 minuter sedan, klockan 11:25 UTC
Prognos gäller från 24 kl. 12 UTC till 25 kl. 12 UTC
Vind 8 kt från nordost
Sikt 10 km eller mer
Få moln på en höjd av 4500 ft
Temporärt
från 24 kl. 12 UTC till 25 kl. 06 UTC
Vind 8 kt varierande vindriktning
Sannolikhet 30% :
Temporärt
från 24 kl. 12 UTC till 25 kl. 06 UTC
Vind 10 kt från nordost i byarna ända upp till 20 kt

TAF: LDRI 241125Z 2412/2512 04008KT 9999 FEW045 TX30/2414Z TN21/2504Z TEMPO 2412/2506 VRB08KT PROB30 TEMPO 2412/2506 04010G20KT

Aktuella väderrapporter och prognoser från 4000 flygplatser (METAR- och TAF-rapporter).

De tillgängliga stationerna syns som gula och röda prickar på kartan.

För musen över prickarna för att se namnen på stationerna.

Klicka sedan för att få väderrapporter och prognoser.

För att ändra kartan: Klicka på de gröna knapparna med ett svart kors på för att zooma in; den gröna knappen med ett streck på för att zooma ut; eller på de gröna pilarna för angränsande kartor.


METAR-TAF: